sensor_id;sensor_type;location;lat;lon;timestamp;pressure;altitude;pressure_sealevel;temperature;humidity
33189;BME280;52601;53.070;10.600;2023-04-22T00:00:13;100975.00;;;12.15;62.58
33189;BME280;52601;53.070;10.600;2023-04-22T00:02:59;100971.63;;;12.13;62.64
33189;BME280;52601;53.070;10.600;2023-04-22T00:05:46;100965.75;;;12.08;62.54
33189;BME280;52601;53.070;10.600;2023-04-22T00:08:31;100958.16;;;12.02;63.19
33189;BME280;52601;53.070;10.600;2023-04-22T00:11:17;100959.03;;;12.02;63.32
33189;BME280;52601;53.070;10.600;2023-04-22T00:14:03;100948.13;;;11.93;63.47
33189;BME280;52601;53.070;10.600;2023-04-22T00:16:49;100942.03;;;11.92;63.57
33189;BME280;52601;53.070;10.600;2023-04-22T00:19:37;100937.44;;;11.96;63.66
33189;BME280;52601;53.070;10.600;2023-04-22T00:22:23;100943.66;;;11.95;63.84
33189;BME280;52601;53.070;10.600;2023-04-22T00:25:09;100928.25;;;11.87;63.64
33189;BME280;52601;53.070;10.600;2023-04-22T00:27:54;100934.06;;;11.94;63.30
33189;BME280;52601;53.070;10.600;2023-04-22T00:30:40;100924.78;;;11.87;63.87
33189;BME280;52601;53.070;10.600;2023-04-22T00:33:25;100920.53;;;11.84;63.65
33189;BME280;52601;53.070;10.600;2023-04-22T00:36:11;100912.19;;;11.76;63.75
33189;BME280;52601;53.070;10.600;2023-04-22T00:38:56;100919.13;;;11.77;64.09
33189;BME280;52601;53.070;10.600;2023-04-22T00:41:42;100918.22;;;11.78;64.35
33189;BME280;52601;53.070;10.600;2023-04-22T00:44:28;100921.31;;;11.86;64.25
33189;BME280;52601;53.070;10.600;2023-04-22T00:47:14;100916.13;;;11.85;64.03
33189;BME280;52601;53.070;10.600;2023-04-22T00:50:02;100904.75;;;11.84;64.20
33189;BME280;52601;53.070;10.600;2023-04-22T00:52:47;100897.00;;;11.81;64.00
33189;BME280;52601;53.070;10.600;2023-04-22T00:55:33;100897.75;;;11.85;64.12
33189;BME280;52601;53.070;10.600;2023-04-22T00:58:20;100897.66;;;11.86;64.39
33189;BME280;52601;53.070;10.600;2023-04-22T01:01:06;100905.53;;;11.86;64.20
33189;BME280;52601;53.070;10.600;2023-04-22T01:03:52;100900.59;;;11.80;64.46
33189;BME280;52601;53.070;10.600;2023-04-22T01:06:38;100906.28;;;11.71;65.17
33189;BME280;52601;53.070;10.600;2023-04-22T01:09:25;100890.28;;;11.59;65.46
33189;BME280;52601;53.070;10.600;2023-04-22T01:12:10;100893.81;;;11.58;65.81
33189;BME280;52601;53.070;10.600;2023-04-22T01:14:56;100895.59;;;11.57;65.95
33189;BME280;52601;53.070;10.600;2023-04-22T01:17:41;100897.59;;;11.52;66.05
33189;BME280;52601;53.070;10.600;2023-04-22T01:20:28;100894.75;;;11.57;65.57
33189;BME280;52601;53.070;10.600;2023-04-22T01:23:21;100891.34;;;11.55;66.09
33189;BME280;52601;53.070;10.600;2023-04-22T01:26:07;100891.25;;;11.56;65.75
33189;BME280;52601;53.070;10.600;2023-04-22T01:28:52;100890.34;;;11.57;65.63
33189;BME280;52601;53.070;10.600;2023-04-22T01:31:38;100888.81;;;11.53;66.11
33189;BME280;52601;53.070;10.600;2023-04-22T01:34:23;100887.00;;;11.54;65.73
33189;BME280;52601;53.070;10.600;2023-04-22T01:37:09;100890.66;;;11.51;65.87
33189;BME280;52601;53.070;10.600;2023-04-22T01:39:57;100884.44;;;11.35;66.71
33189;BME280;52601;53.070;10.600;2023-04-22T01:42:43;100889.34;;;11.24;67.41
33189;BME280;52601;53.070;10.600;2023-04-22T01:45:28;100889.22;;;11.27;67.03
33189;BME280;52601;53.070;10.600;2023-04-22T01:48:14;100882.31;;;11.24;66.69
33189;BME280;52601;53.070;10.600;2023-04-22T01:51:00;100877.00;;;11.26;67.34
33189;BME280;52601;53.070;10.600;2023-04-22T01:53:49;100883.09;;;11.26;66.78
33189;BME280;52601;53.070;10.600;2023-04-22T01:56:35;100869.00;;;11.29;66.89
33189;BME280;52601;53.070;10.600;2023-04-22T01:59:20;100869.91;;;11.28;67.23
33189;BME280;52601;53.070;10.600;2023-04-22T02:02:06;100871.91;;;11.23;67.36
33189;BME280;52601;53.070;10.600;2023-04-22T02:04:52;100863.63;;;11.13;67.64
33189;BME280;52601;53.070;10.600;2023-04-22T02:07:37;100865.47;;;11.11;67.86
33189;BME280;52601;53.070;10.600;2023-04-22T02:10:23;100878.59;;;11.11;67.61
33189;BME280;52601;53.070;10.600;2023-04-22T02:13:08;100873.56;;;11.07;68.25
33189;BME280;52601;53.070;10.600;2023-04-22T02:15:54;100869.97;;;10.91;68.38
33189;BME280;52601;53.070;10.600;2023-04-22T02:18:39;100873.44;;;10.91;68.71
33189;BME280;52601;53.070;10.600;2023-04-22T02:21:28;100864.59;;;10.75;69.36
33189;BME280;52601;53.070;10.600;2023-04-22T02:24:14;100866.63;;;10.69;69.74
33189;BME280;52601;53.070;10.600;2023-04-22T02:26:59;100863.22;;;10.67;69.85
33189;BME280;52601;53.070;10.600;2023-04-22T02:29:45;100851.34;;;10.60;70.25
33189;BME280;52601;53.070;10.600;2023-04-22T02:32:31;100849.00;;;10.54;69.96
33189;BME280;52601;53.070;10.600;2023-04-22T02:35:17;100850.06;;;10.50;70.20
33189;BME280;52601;53.070;10.600;2023-04-22T02:38:02;100852.16;;;10.42;71.24
33189;BME280;52601;53.070;10.600;2023-04-22T02:40:48;100853.34;;;10.34;71.26
33189;BME280;52601;53.070;10.600;2023-04-22T02:43:33;100854.13;;;10.18;72.22
33189;BME280;52601;53.070;10.600;2023-04-22T02:46:19;100849.59;;;10.21;72.01
33189;BME280;52601;53.070;10.600;2023-04-22T02:49:04;100847.03;;;10.20;71.67
33189;BME280;52601;53.070;10.600;2023-04-22T02:51:50;100850.03;;;10.31;71.78
33189;BME280;52601;53.070;10.600;2023-04-22T02:54:35;100853.09;;;10.20;72.31
33189;BME280;52601;53.070;10.600;2023-04-22T02:57:21;100851.00;;;10.08;73.53
33189;BME280;52601;53.070;10.600;2023-04-22T03:00:07;100851.41;;;9.99;73.37
33189;BME280;52601;53.070;10.600;2023-04-22T03:02:52;100842.41;;;9.86;74.10
33189;BME280;52601;53.070;10.600;2023-04-22T03:05:38;100845.31;;;9.79;74.32
33189;BME280;52601;53.070;10.600;2023-04-22T03:08:24;100850.28;;;9.85;74.43
33189;BME280;52601;53.070;10.600;2023-04-22T03:11:10;100847.34;;;9.92;74.23
33189;BME280;52601;53.070;10.600;2023-04-22T03:13:55;100845.78;;;9.88;74.13
33189;BME280;52601;53.070;10.600;2023-04-22T03:16:40;100846.84;;;9.84;74.11
33189;BME280;52601;53.070;10.600;2023-04-22T03:19:26;100841.09;;;9.76;74.47
33189;BME280;52601;53.070;10.600;2023-04-22T03:22:11;100829.22;;;9.68;75.25
33189;BME280;52601;53.070;10.600;2023-04-22T03:24:57;100828.19;;;9.72;74.96
33189;BME280;52601;53.070;10.600;2023-04-22T03:27:43;100832.22;;;9.79;74.65
33189;BME280;52601;53.070;10.600;2023-04-22T03:30:28;100826.19;;;9.77;74.84
33189;BME280;52601;53.070;10.600;2023-04-22T03:33:14;100826.19;;;9.77;75.36
33189;BME280;52601;53.070;10.600;2023-04-22T03:36:00;100816.75;;;9.74;75.72
33189;BME280;52601;53.070;10.600;2023-04-22T03:38:45;100823.81;;;9.72;75.08
33189;BME280;52601;53.070;10.600;2023-04-22T03:41:31;100815.16;;;9.70;74.76
33189;BME280;52601;53.070;10.600;2023-04-22T03:44:16;100803.13;;;9.66;75.47
33189;BME280;52601;53.070;10.600;2023-04-22T03:47:02;100812.53;;;9.70;75.64
33189;BME280;52601;53.070;10.600;2023-04-22T03:49:47;100807.03;;;9.76;75.43
33189;BME280;52601;53.070;10.600;2023-04-22T03:52:33;100803.56;;;9.76;75.59
33189;BME280;52601;53.070;10.600;2023-04-22T03:55:18;100810.56;;;9.75;75.49
33189;BME280;52601;53.070;10.600;2023-04-22T03:58:03;100814.56;;;9.84;75.07
33189;BME280;52601;53.070;10.600;2023-04-22T04:00:49;100806.72;;;9.84;74.99
33189;BME280;52601;53.070;10.600;2023-04-22T04:03:34;100804.72;;;9.89;75.24
33189;BME280;52601;53.070;10.600;2023-04-22T04:06:21;100795.34;;;10.03;74.68
33189;BME280;52601;53.070;10.600;2023-04-22T04:09:06;100793.50;;;10.05;74.49
33189;BME280;52601;53.070;10.600;2023-04-22T04:11:52;100792.72;;;10.03;74.44
33189;BME280;52601;53.070;10.600;2023-04-22T04:14:37;100801.50;;;10.02;74.54
33189;BME280;52601;53.070;10.600;2023-04-22T04:17:23;100799.03;;;9.99;74.88
33189;BME280;52601;53.070;10.600;2023-04-22T04:20:11;100799.03;;;9.99;74.88
33189;BME280;52601;53.070;10.600;2023-04-22T04:22:56;100797.78;;;10.08;73.91
33189;BME280;52601;53.070;10.600;2023-04-22T04:25:42;100784.59;;;10.09;73.99
33189;BME280;52601;53.070;10.600;2023-04-22T04:28:28;100782.88;;;10.10;74.62
33189;BME280;52601;53.070;10.600;2023-04-22T04:31:18;100787.88;;;10.14;74.21
33189;BME280;52601;53.070;10.600;2023-04-22T04:34:04;100792.13;;;10.17;74.32
33189;BME280;52601;53.070;10.600;2023-04-22T04:36:49;100785.91;;;10.19;74.32
33189;BME280;52601;53.070;10.600;2023-04-22T04:39:35;100785.63;;;10.25;74.21
33189;BME280;52601;53.070;10.600;2023-04-22T04:42:20;100787.31;;;10.26;73.90
33189;BME280;52601;53.070;10.600;2023-04-22T04:45:09;100789.47;;;10.37;73.50
33189;BME280;52601;53.070;10.600;2023-04-22T04:47:54;100792.78;;;10.40;73.51
33189;BME280;52601;53.070;10.600;2023-04-22T04:50:41;100785.63;;;10.44;73.44
33189;BME280;52601;53.070;10.600;2023-04-22T04:53:26;100783.00;;;10.44;73.50
33189;BME280;52601;53.070;10.600;2023-04-22T04:56:12;100792.38;;;10.50;73.70
33189;BME280;52601;53.070;10.600;2023-04-22T04:58:57;100777.34;;;10.53;73.44
33189;BME280;52601;53.070;10.600;2023-04-22T05:01:44;100784.84;;;10.61;73.32
33189;BME280;52601;53.070;10.600;2023-04-22T05:04:29;100781.16;;;10.65;73.17
33189;BME280;52601;53.070;10.600;2023-04-22T05:07:15;100783.41;;;10.72;72.51
33189;BME280;52601;53.070;10.600;2023-04-22T05:10:01;100786.59;;;10.79;72.66
33189;BME280;52601;53.070;10.600;2023-04-22T05:12:47;100786.09;;;10.89;72.08
33189;BME280;52601;53.070;10.600;2023-04-22T05:15:36;100787.81;;;11.07;73.09
33189;BME280;52601;53.070;10.600;2023-04-22T05:18:42;100780.25;;;11.18;72.17
33189;BME280;52601;53.070;10.600;2023-04-22T05:21:27;100778.72;;;11.32;71.85
33189;BME280;52601;53.070;10.600;2023-04-22T05:24:13;100776.31;;;11.44;71.69
33189;BME280;52601;53.070;10.600;2023-04-22T05:26:58;100784.22;;;11.44;70.70
33189;BME280;52601;53.070;10.600;2023-04-22T05:29:44;100797.72;;;11.54;70.84
33189;BME280;52601;53.070;10.600;2023-04-22T05:32:29;100800.13;;;11.58;70.98
33189;BME280;52601;53.070;10.600;2023-04-22T05:35:15;100785.91;;;11.62;70.95
33189;BME280;52601;53.070;10.600;2023-04-22T05:38:01;100792.22;;;11.92;70.46
33189;BME280;52601;53.070;10.600;2023-04-22T05:40:47;100778.66;;;12.79;69.03
33189;BME280;52601;53.070;10.600;2023-04-22T05:43:32;100782.63;;;13.47;64.99
33189;BME280;52601;53.070;10.600;2023-04-22T05:46:18;100783.00;;;14.27;63.35
33189;BME280;52601;53.070;10.600;2023-04-22T05:49:04;100785.44;;;14.99;60.43
33189;BME280;52601;53.070;10.600;2023-04-22T05:51:50;100785.78;;;15.46;59.83
33189;BME280;52601;53.070;10.600;2023-04-22T05:54:36;100779.59;;;15.85;58.63
33189;BME280;52601;53.070;10.600;2023-04-22T05:57:21;100772.81;;;15.94;57.84
33189;BME280;52601;53.070;10.600;2023-04-22T06:00:07;100771.94;;;16.31;56.50
33189;BME280;52601;53.070;10.600;2023-04-22T06:02:54;100766.50;;;16.45;55.88
33189;BME280;52601;53.070;10.600;2023-04-22T06:05:40;100770.94;;;16.57;55.41
33189;BME280;52601;53.070;10.600;2023-04-22T06:08:30;100767.59;;;17.50;55.10
33189;BME280;52601;53.070;10.600;2023-04-22T06:11:15;100755.00;;;17.97;53.07
33189;BME280;52601;53.070;10.600;2023-04-22T06:14:01;100761.47;;;18.82;51.41
33189;BME280;52601;53.070;10.600;2023-04-22T06:16:47;100750.97;;;18.69;51.18
33189;BME280;52601;53.070;10.600;2023-04-22T06:19:34;100757.22;;;19.22;50.38
33189;BME280;52601;53.070;10.600;2023-04-22T06:22:19;100765.31;;;19.52;49.74
33189;BME280;52601;53.070;10.600;2023-04-22T06:25:05;100757.91;;;19.56;49.44
33189;BME280;52601;53.070;10.600;2023-04-22T06:27:51;100753.22;;;19.90;49.23
33189;BME280;52601;53.070;10.600;2023-04-22T06:30:36;100737.44;;;19.98;47.96
33189;BME280;52601;53.070;10.600;2023-04-22T06:33:22;100745.03;;;20.02;48.73
33189;BME280;52601;53.070;10.600;2023-04-22T06:36:07;100749.00;;;20.17;48.01
33189;BME280;52601;53.070;10.600;2023-04-22T06:38:53;100748.56;;;21.11;46.28
33189;BME280;52601;53.070;10.600;2023-04-22T06:41:39;100750.84;;;20.56;47.32
33189;BME280;52601;53.070;10.600;2023-04-22T06:44:27;100750.03;;;20.75;47.59
33189;BME280;52601;53.070;10.600;2023-04-22T06:47:13;100751.88;;;20.84;47.51
33189;BME280;52601;53.070;10.600;2023-04-22T06:49:58;100742.94;;;21.33;46.70
33189;BME280;52601;53.070;10.600;2023-04-22T06:52:44;100746.75;;;21.21;46.41
33189;BME280;52601;53.070;10.600;2023-04-22T06:55:30;100749.41;;;21.11;46.62
33189;BME280;52601;53.070;10.600;2023-04-22T06:58:15;100739.88;;;21.37;46.75
33189;BME280;52601;53.070;10.600;2023-04-22T07:01:01;100740.78;;;21.56;45.51
33189;BME280;52601;53.070;10.600;2023-04-22T07:03:47;100728.72;;;21.61;45.42
33189;BME280;52601;53.070;10.600;2023-04-22T07:06:32;100738.41;;;21.81;46.07
33189;BME280;52601;53.070;10.600;2023-04-22T07:09:18;100736.63;;;22.09;44.36
33189;BME280;52601;53.070;10.600;2023-04-22T07:12:04;100733.47;;;22.50;43.61
33189;BME280;52601;53.070;10.600;2023-04-22T07:14:49;100733.84;;;22.65;43.31
33189;BME280;52601;53.070;10.600;2023-04-22T07:17:35;100743.38;;;22.40;43.99
33189;BME280;52601;53.070;10.600;2023-04-22T07:20:21;100742.56;;;23.02;43.08
33189;BME280;52601;53.070;10.600;2023-04-22T07:23:06;100738.75;;;23.04;41.97
33189;BME280;52601;53.070;10.600;2023-04-22T07:25:52;100748.94;;;23.36;42.47
33189;BME280;52601;53.070;10.600;2023-04-22T07:28:37;100733.84;;;23.35;42.22
33189;BME280;52601;53.070;10.600;2023-04-22T07:31:23;100730.94;;;23.98;41.48
33189;BME280;52601;53.070;10.600;2023-04-22T07:34:08;100722.59;;;24.34;40.69
33189;BME280;52601;53.070;10.600;2023-04-22T07:36:55;100721.38;;;23.95;41.55
33189;BME280;52601;53.070;10.600;2023-04-22T07:39:40;100710.22;;;24.33;40.76
33189;BME280;52601;53.070;10.600;2023-04-22T07:42:27;100718.81;;;24.53;40.86
33189;BME280;52601;53.070;10.600;2023-04-22T07:45:12;100718.94;;;24.85;40.08
33189;BME280;52601;53.070;10.600;2023-04-22T07:47:58;100707.88;;;25.20;39.59
33189;BME280;52601;53.070;10.600;2023-04-22T07:50:44;100701.75;;;25.99;39.12
33189;BME280;52601;53.070;10.600;2023-04-22T07:53:29;100701.47;;;25.37;38.94
33189;BME280;52601;53.070;10.600;2023-04-22T07:56:14;100710.69;;;24.78;41.27
33189;BME280;52601;53.070;10.600;2023-04-22T07:59:00;100705.53;;;25.01;39.87
33189;BME280;52601;53.070;10.600;2023-04-22T08:01:45;100712.19;;;24.73;40.84
33189;BME280;52601;53.070;10.600;2023-04-22T08:04:31;100694.09;;;24.83;40.77
33189;BME280;52601;53.070;10.600;2023-04-22T08:07:17;100707.53;;;24.91;41.03
33189;BME280;52601;53.070;10.600;2023-04-22T08:10:17;100693.28;;;25.23;40.68
33189;BME280;52601;53.070;10.600;2023-04-22T08:13:02;100700.47;;;24.82;41.26
33189;BME280;52601;53.070;10.600;2023-04-22T08:15:48;100701.16;;;25.08;41.54
33189;BME280;52601;53.070;10.600;2023-04-22T08:18:36;100681.88;;;25.37;41.07
33189;BME280;52601;53.070;10.600;2023-04-22T08:21:21;100677.34;;;24.81;41.47
33189;BME280;52601;53.070;10.600;2023-04-22T08:24:06;100679.38;;;25.19;41.16
33189;BME280;52601;53.070;10.600;2023-04-22T08:26:51;100674.72;;;25.92;40.59
33189;BME280;52601;53.070;10.600;2023-04-22T08:29:37;100685.22;;;25.23;40.19
33189;BME280;52601;53.070;10.600;2023-04-22T08:32:23;100690.97;;;24.54;41.41
33189;BME280;52601;53.070;10.600;2023-04-22T08:35:10;100672.81;;;23.64;43.09
33189;BME280;52601;53.070;10.600;2023-04-22T08:37:56;100689.59;;;23.05;44.21
33189;BME280;52601;53.070;10.600;2023-04-22T08:40:42;100673.06;;;22.75;44.95
33189;BME280;52601;53.070;10.600;2023-04-22T08:43:27;100679.88;;;22.87;44.93
33189;BME280;52601;53.070;10.600;2023-04-22T08:46:13;100672.69;;;23.05;44.62
33189;BME280;52601;53.070;10.600;2023-04-22T08:49:00;100673.66;;;23.39;43.80
33189;BME280;52601;53.070;10.600;2023-04-22T08:51:48;100685.03;;;23.92;44.07
33189;BME280;52601;53.070;10.600;2023-04-22T08:54:34;100668.50;;;26.38;40.14
33189;BME280;52601;53.070;10.600;2023-04-22T08:57:21;100667.88;;;27.04;39.35
33189;BME280;52601;53.070;10.600;2023-04-22T09:00:08;100656.72;;;28.11;37.14
33189;BME280;52601;53.070;10.600;2023-04-22T09:02:53;100661.50;;;28.30;36.67
33189;BME280;52601;53.070;10.600;2023-04-22T09:05:40;100660.00;;;28.42;37.47
33189;BME280;52601;53.070;10.600;2023-04-22T09:08:27;100665.22;;;29.22;35.68
33189;BME280;52601;53.070;10.600;2023-04-22T09:11:13;100656.72;;;28.82;36.42
33189;BME280;52601;53.070;10.600;2023-04-22T09:13:58;100657.31;;;29.20;35.91
33189;BME280;52601;53.070;10.600;2023-04-22T09:16:47;100642.13;;;29.74;35.59
33189;BME280;52601;53.070;10.600;2023-04-22T09:19:32;100667.00;;;29.98;34.85
33189;BME280;52601;53.070;10.600;2023-04-22T09:22:18;100654.97;;;30.07;34.73
33189;BME280;52601;53.070;10.600;2023-04-22T09:25:03;100653.19;;;29.24;35.28
33189;BME280;52601;53.070;10.600;2023-04-22T09:27:54;100654.88;;;28.83;36.66
33189;BME280;52601;53.070;10.600;2023-04-22T09:30:43;100642.63;;;29.57;36.73
33189;BME280;52601;53.070;10.600;2023-04-22T09:33:30;100649.13;;;29.97;34.69
33189;BME280;52601;53.070;10.600;2023-04-22T09:36:15;100646.34;;;30.24;34.46
33189;BME280;52601;53.070;10.600;2023-04-22T09:39:03;100638.81;;;29.51;35.67
33189;BME280;52601;53.070;10.600;2023-04-22T09:41:53;100640.38;;;30.42;34.70
33189;BME280;52601;53.070;10.600;2023-04-22T09:44:39;100627.34;;;31.63;34.81
33189;BME280;52601;53.070;10.600;2023-04-22T09:47:24;100632.53;;;32.35;33.29
33189;BME280;52601;53.070;10.600;2023-04-22T09:50:10;100624.25;;;32.17;32.74
33189;BME280;52601;53.070;10.600;2023-04-22T09:53:02;100626.78;;;32.56;32.88
33189;BME280;52601;53.070;10.600;2023-04-22T09:55:50;100622.88;;;33.33;31.60
33189;BME280;52601;53.070;10.600;2023-04-22T09:58:39;100622.00;;;33.57;32.50
33189;BME280;52601;53.070;10.600;2023-04-22T10:01:34;100605.31;;;34.08;30.89
33189;BME280;52601;53.070;10.600;2023-04-22T10:04:20;100612.03;;;33.69;31.70
33189;BME280;52601;53.070;10.600;2023-04-22T10:07:07;100605.41;;;34.31;31.03
33189;BME280;52601;53.070;10.600;2023-04-22T10:09:53;100602.28;;;33.61;31.63
33189;BME280;52601;53.070;10.600;2023-04-22T10:12:38;100607.44;;;33.27;31.65
33189;BME280;52601;53.070;10.600;2023-04-22T10:15:24;100605.81;;;32.94;31.82
33189;BME280;52601;53.070;10.600;2023-04-22T10:18:13;100599.00;;;33.53;31.81
33189;BME280;52601;53.070;10.600;2023-04-22T10:21:01;100585.56;;;34.72;30.98
33189;BME280;52601;53.070;10.600;2023-04-22T10:23:47;100594.56;;;35.88;30.42
33189;BME280;52601;53.070;10.600;2023-04-22T10:29:38;100582.41;;;35.67;29.46
33189;BME280;52601;53.070;10.600;2023-04-22T10:32:25;100568.66;;;35.50;30.17
33189;BME280;52601;53.070;10.600;2023-04-22T10:35:13;100565.50;;;35.93;29.07
33189;BME280;52601;53.070;10.600;2023-04-22T10:37:58;100574.47;;;35.42;30.03
33189;BME280;52601;53.070;10.600;2023-04-22T10:41:02;100572.50;;;36.01;29.03
33189;BME280;52601;53.070;10.600;2023-04-22T10:43:55;100558.47;;;35.00;29.36
33189;BME280;52601;53.070;10.600;2023-04-22T10:49:37;100563.97;;;35.97;29.42
33189;BME280;52601;53.070;10.600;2023-04-22T10:52:27;100553.91;;;36.76;29.38
33189;BME280;52601;53.070;10.600;2023-04-22T10:55:13;100542.75;;;36.94;27.46
33189;BME280;52601;53.070;10.600;2023-04-22T10:57:59;100550.34;;;37.63;27.65
33189;BME280;52601;53.070;10.600;2023-04-22T11:00:44;100543.56;;;36.78;28.01
33189;BME280;52601;53.070;10.600;2023-04-22T11:03:36;100557.06;;;37.17;27.23
33189;BME280;52601;53.070;10.600;2023-04-22T11:06:22;100545.53;;;36.66;27.59
33189;BME280;52601;53.070;10.600;2023-04-22T11:09:11;100527.97;;;37.11;27.88
33189;BME280;52601;53.070;10.600;2023-04-22T11:15:20;100516.72;;;37.68;27.63
33189;BME280;52601;53.070;10.600;2023-04-22T11:18:08;100515.75;;;38.59;26.77
33189;BME280;52601;53.070;10.600;2023-04-22T11:20:55;100518.50;;;38.59;26.77
33189;BME280;52601;53.070;10.600;2023-04-22T11:23:51;100517.84;;;37.72;26.54
33189;BME280;52601;53.070;10.600;2023-04-22T11:26:40;100507.44;;;37.31;27.10
33189;BME280;52601;53.070;10.600;2023-04-22T11:29:26;100520.72;;;37.60;26.66
33189;BME280;52601;53.070;10.600;2023-04-22T11:32:11;100492.88;;;37.90;26.81
33189;BME280;52601;53.070;10.600;2023-04-22T11:35:02;100494.75;;;38.11;26.02
33189;BME280;52601;53.070;10.600;2023-04-22T11:37:54;100500.72;;;36.67;27.67
33189;BME280;52601;53.070;10.600;2023-04-22T11:40:43;100494.13;;;37.77;28.10
33189;BME280;52601;53.070;10.600;2023-04-22T11:43:32;100509.44;;;37.57;27.70
33189;BME280;52601;53.070;10.600;2023-04-22T11:46:27;100493.50;;;37.10;27.10
33189;BME280;52601;53.070;10.600;2023-04-22T11:49:13;100495.56;;;35.92;28.42
33189;BME280;52601;53.070;10.600;2023-04-22T11:51:59;100493.66;;;35.41;28.46
33189;BME280;52601;53.070;10.600;2023-04-22T11:54:45;100494.13;;;35.50;29.25
33189;BME280;52601;53.070;10.600;2023-04-22T11:57:34;100476.50;;;35.29;29.79
33189;BME280;52601;53.070;10.600;2023-04-22T12:00:21;100474.25;;;34.92;29.21
33189;BME280;52601;53.070;10.600;2023-04-22T12:03:18;100490.59;;;34.04;30.54
33189;BME280;52601;53.070;10.600;2023-04-22T12:06:04;100501.75;;;34.14;29.99
33189;BME280;52601;53.070;10.600;2023-04-22T12:08:50;100488.00;;;33.91;30.23
33189;BME280;52601;53.070;10.600;2023-04-22T12:11:37;100483.16;;;34.76;29.27
33189;BME280;52601;53.070;10.600;2023-04-22T12:14:32;100486.03;;;34.28;29.66
33189;BME280;52601;53.070;10.600;2023-04-22T12:17:23;100466.44;;;34.95;28.66
33189;BME280;52601;53.070;10.600;2023-04-22T12:20:11;100468.50;;;34.47;29.33
33189;BME280;52601;53.070;10.600;2023-04-22T12:23:00;100465.84;;;34.82;29.57
33189;BME280;52601;53.070;10.600;2023-04-22T12:25:45;100457.19;;;35.08;28.78
33189;BME280;52601;53.070;10.600;2023-04-22T12:28:30;100463.47;;;35.71;28.50
33189;BME280;52601;53.070;10.600;2023-04-22T12:31:16;100464.53;;;34.49;29.73
33189;BME280;52601;53.070;10.600;2023-04-22T12:34:02;100435.84;;;34.82;29.41
33189;BME280;52601;53.070;10.600;2023-04-22T12:36:49;100439.88;;;35.14;28.63
33189;BME280;52601;53.070;10.600;2023-04-22T12:39:34;100425.19;;;35.43;28.95
33189;BME280;52601;53.070;10.600;2023-04-22T12:42:22;100416.22;;;35.31;29.27
33189;BME280;52601;53.070;10.600;2023-04-22T12:45:08;100403.72;;;34.95;29.08
33189;BME280;52601;53.070;10.600;2023-04-22T12:47:53;100407.44;;;35.29;28.44
33189;BME280;52601;53.070;10.600;2023-04-22T12:50:39;100412.66;;;34.56;29.01
33189;BME280;52601;53.070;10.600;2023-04-22T12:53:26;100397.41;;;34.95;29.33
33189;BME280;52601;53.070;10.600;2023-04-22T12:56:12;100405.34;;;34.96;29.34
33189;BME280;52601;53.070;10.600;2023-04-22T12:58:57;100414.25;;;35.55;28.97
33189;BME280;52601;53.070;10.600;2023-04-22T13:01:47;100388.44;;;34.83;29.13
33189;BME280;52601;53.070;10.600;2023-04-22T13:04:33;100393.50;;;34.44;30.13
33189;BME280;52601;53.070;10.600;2023-04-22T13:07:18;100390.56;;;33.81;30.84
33189;BME280;52601;53.070;10.600;2023-04-22T13:10:05;100397.19;;;33.74;30.69
33189;BME280;52601;53.070;10.600;2023-04-22T13:12:51;100380.34;;;33.65;30.86
33189;BME280;52601;53.070;10.600;2023-04-22T13:15:37;100398.34;;;33.66;30.75
33189;BME280;52601;53.070;10.600;2023-04-22T13:18:23;100400.19;;;33.96;30.19
33189;BME280;52601;53.070;10.600;2023-04-22T13:21:09;100380.84;;;32.72;31.37
33189;BME280;52601;53.070;10.600;2023-04-22T13:23:58;100407.09;;;33.02;30.95
33189;BME280;52601;53.070;10.600;2023-04-22T13:26:43;100394.59;;;32.09;31.32
33189;BME280;52601;53.070;10.600;2023-04-22T13:29:29;100385.84;;;32.07;31.82
33189;BME280;52601;53.070;10.600;2023-04-22T13:32:14;100377.81;;;33.04;30.31
33189;BME280;52601;53.070;10.600;2023-04-22T13:35:00;100367.19;;;32.36;29.93
33189;BME280;52601;53.070;10.600;2023-04-22T13:37:48;100353.66;;;32.11;30.99
33189;BME280;52601;53.070;10.600;2023-04-22T13:40:34;100390.31;;;31.95;30.92
33189;BME280;52601;53.070;10.600;2023-04-22T13:43:19;100368.44;;;31.53;31.81
33189;BME280;52601;53.070;10.600;2023-04-22T13:46:05;100365.72;;;31.08;32.52
33189;BME280;52601;53.070;10.600;2023-04-22T13:48:51;100361.34;;;30.30;33.41
33189;BME280;52601;53.070;10.600;2023-04-22T13:51:37;100375.81;;;30.82;33.62
33189;BME280;52601;53.070;10.600;2023-04-22T13:54:23;100360.50;;;30.30;34.04
33189;BME280;52601;53.070;10.600;2023-04-22T13:57:10;100351.50;;;29.84;34.41
33189;BME280;52601;53.070;10.600;2023-04-22T13:59:56;100364.16;;;29.70;34.90
33189;BME280;52601;53.070;10.600;2023-04-22T14:02:43;100356.06;;;29.10;35.28
33189;BME280;52601;53.070;10.600;2023-04-22T14:05:28;100354.78;;;29.53;35.78
33189;BME280;52601;53.070;10.600;2023-04-22T14:08:14;100351.09;;;29.13;35.48
33189;BME280;52601;53.070;10.600;2023-04-22T14:10:59;100352.56;;;29.16;35.74
33189;BME280;52601;53.070;10.600;2023-04-22T14:13:47;100360.38;;;28.98;36.06
33189;BME280;52601;53.070;10.600;2023-04-22T14:16:33;100334.56;;;28.54;36.17
33189;BME280;52601;53.070;10.600;2023-04-22T14:19:19;100340.53;;;27.94;37.29
33189;BME280;52601;53.070;10.600;2023-04-22T14:22:05;100335.69;;;27.62;37.60
33189;BME280;52601;53.070;10.600;2023-04-22T14:24:51;100331.13;;;26.91;38.45
33189;BME280;52601;53.070;10.600;2023-04-22T14:27:37;100321.97;;;26.57;38.99